createdAt,value
2022-12-12T00:00:01.146Z,-2.40
2022-12-12T00:02:31.893Z,-2.40
2022-12-12T00:05:02.792Z,-2.40
2022-12-12T00:07:33.600Z,-2.50
2022-12-12T00:10:05.094Z,-2.60
2022-12-12T00:12:35.741Z,-2.60
2022-12-12T00:15:08.312Z,-2.70
2022-12-12T00:17:38.973Z,-2.70
2022-12-12T00:20:10.645Z,-2.60
2022-12-12T00:22:41.411Z,-2.70
2022-12-12T00:25:13.302Z,-2.70
2022-12-12T00:27:44.152Z,-2.80
2022-12-12T00:30:15.707Z,-2.70
2022-12-12T00:32:46.388Z,-2.70
2022-12-12T00:35:17.197Z,-2.70
2022-12-12T00:37:47.884Z,-2.70
2022-12-12T00:40:18.718Z,-2.60
2022-12-12T00:42:49.341Z,-2.60
2022-12-12T00:45:20.335Z,-2.60
2022-12-12T00:47:51.134Z,-2.60
2022-12-12T00:50:21.834Z,-2.60
2022-12-12T00:52:52.519Z,-2.50
2022-12-12T00:55:23.817Z,-2.50
2022-12-12T00:57:54.563Z,-2.50
2022-12-12T01:00:26.008Z,-2.50
2022-12-12T01:02:58.704Z,-2.50
2022-12-12T01:05:30.148Z,-2.50
2022-12-12T01:08:00.958Z,-2.60
2022-12-12T01:10:31.606Z,-2.60
2022-12-12T01:13:02.339Z,-2.70
2022-12-12T01:15:33.790Z,-2.70
2022-12-12T01:18:04.496Z,-2.70
2022-12-12T01:20:35.188Z,-2.70
2022-12-12T01:23:05.895Z,-2.80
2022-12-12T01:25:36.541Z,-2.70
2022-12-12T01:28:07.471Z,-2.70
2022-12-12T01:30:38.796Z,-2.70
2022-12-12T01:33:09.837Z,-2.70
2022-12-12T01:35:40.575Z,-2.60
2022-12-12T01:38:11.561Z,-2.60
2022-12-12T01:40:42.261Z,-2.60
2022-12-12T01:43:15.101Z,-2.60
2022-12-12T01:46:35.243Z,-2.60
2022-12-12T01:49:10.474Z,-2.60
2022-12-12T01:51:43.070Z,-2.60
2022-12-12T01:54:17.206Z,-2.70
2022-12-12T01:56:49.408Z,-2.70
2022-12-12T01:59:22.878Z,-2.70
2022-12-12T02:01:54.388Z,-2.80
2022-12-12T02:04:28.190Z,-2.90
2022-12-12T02:06:59.547Z,-2.90
2022-12-12T02:09:30.273Z,-2.90
2022-12-12T02:12:01.347Z,-2.90
2022-12-12T02:14:35.504Z,-2.90
2022-12-12T02:17:40.196Z,-3.00
2022-12-12T02:20:31.274Z,-3.10
2022-12-12T02:23:44.756Z,-3.30
2022-12-12T02:27:04.635Z,-3.30
2022-12-12T02:30:11.704Z,-3.30
2022-12-12T02:33:06.871Z,-3.40
2022-12-12T02:35:45.253Z,-3.40
2022-12-12T02:38:22.247Z,-3.50
2022-12-12T02:40:56.343Z,-3.50
2022-12-12T02:43:31.984Z,-3.40
2022-12-12T02:46:05.955Z,-3.30
2022-12-12T02:48:40.109Z,-3.30
2022-12-12T02:51:14.063Z,-3.30
2022-12-12T02:53:44.638Z,-3.30
2022-12-12T02:56:48.471Z,-3.20
2022-12-12T02:59:26.422Z,-3.10
2022-12-12T03:05:40.107Z,-3.50
2022-12-12T03:08:15.511Z,-3.50
2022-12-12T03:10:51.644Z,-3.50
2022-12-12T03:13:27.179Z,-3.70
2022-12-12T03:16:02.171Z,-3.60
2022-12-12T03:18:36.383Z,-3.50
2022-12-12T03:21:10.256Z,-3.70
2022-12-12T03:23:44.195Z,-3.90
2022-12-12T03:26:17.899Z,-3.90
2022-12-12T03:28:52.164Z,-3.90
2022-12-12T03:31:26.654Z,-3.90
2022-12-12T03:34:00.431Z,-3.90
2022-12-12T03:36:35.173Z,-3.90
2022-12-12T03:39:08.725Z,-3.90
2022-12-12T03:41:42.550Z,-4.00
2022-12-12T03:44:16.161Z,-4.00
2022-12-12T03:46:50.116Z,-4.00
2022-12-12T03:49:24.161Z,-4.10
2022-12-12T03:51:57.799Z,-4.10
2022-12-12T03:54:31.342Z,-4.10
2022-12-12T03:57:04.804Z,-4.00
2022-12-12T03:59:38.340Z,-4.10
2022-12-12T04:02:14.365Z,-4.10
2022-12-12T04:04:55.843Z,-3.90
2022-12-12T04:07:29.082Z,-4.00
2022-12-12T04:10:17.521Z,-4.20
2022-12-12T04:15:53.991Z,-4.10
2022-12-12T04:18:39.356Z,-4.10
2022-12-12T04:21:41.257Z,-4.00
2022-12-12T04:24:19.027Z,-4.10
2022-12-12T04:26:55.155Z,-4.10
2022-12-12T04:29:40.264Z,-4.10
2022-12-12T04:32:18.653Z,-4.20
2022-12-12T04:34:52.415Z,-4.20
2022-12-12T04:37:26.545Z,-4.20
2022-12-12T04:40:00.243Z,-4.30
2022-12-12T04:42:34.212Z,-4.20
2022-12-12T04:45:08.325Z,-4.20
2022-12-12T04:47:40.939Z,-4.20
2022-12-12T04:50:13.547Z,-4.10
2022-12-12T04:52:46.828Z,-4.20
2022-12-12T04:55:21.217Z,-4.20
2022-12-12T04:57:55.010Z,-4.20
2022-12-12T05:00:28.123Z,-4.20
2022-12-12T05:03:02.432Z,-4.20
2022-12-12T05:05:36.704Z,-4.10
2022-12-12T05:08:10.620Z,-4.10
2022-12-12T05:10:46.548Z,-4.10
2022-12-12T05:13:19.970Z,-4.10
2022-12-12T05:15:53.960Z,-4.10
2022-12-12T05:18:25.647Z,-4.20
2022-12-12T05:20:56.603Z,-4.20
2022-12-12T05:23:33.016Z,-4.20
2022-12-12T05:25:59.668Z,-4.20
2022-12-12T05:28:30.295Z,-4.30
2022-12-12T05:31:00.989Z,-4.40
2022-12-12T05:33:31.881Z,-4.40
2022-12-12T05:36:03.568Z,-4.40
2022-12-12T05:38:34.274Z,-4.50
2022-12-12T05:43:43.354Z,-4.50
2022-12-12T05:46:14.147Z,-4.50
2022-12-12T05:48:47.029Z,-4.50
2022-12-12T05:51:18.540Z,-4.50
2022-12-12T05:53:49.355Z,-4.50
2022-12-12T05:56:20.111Z,-4.60
2022-12-12T05:58:50.751Z,-4.60
2022-12-12T06:01:21.566Z,-4.50
2022-12-12T06:03:52.178Z,-4.60
2022-12-12T06:06:22.882Z,-4.70
2022-12-12T06:11:32.846Z,-4.50
2022-12-12T06:14:03.693Z,-4.50
2022-12-12T06:16:34.342Z,-4.60
2022-12-12T06:19:05.229Z,-4.60
2022-12-12T06:21:36.128Z,-4.50
2022-12-12T06:24:09.427Z,-4.40
2022-12-12T06:26:40.140Z,-4.30
2022-12-12T06:29:10.733Z,-4.20
2022-12-12T06:31:41.470Z,-4.20
2022-12-12T06:34:12.279Z,-4.10
2022-12-12T06:36:43.021Z,-4.00
2022-12-12T06:39:14.109Z,-4.00
2022-12-12T06:41:45.137Z,-4.00
2022-12-12T06:44:17.786Z,-3.90
2022-12-12T06:46:48.122Z,-3.80
2022-12-12T06:49:18.754Z,-3.80
2022-12-12T06:51:49.594Z,-3.80
2022-12-12T06:54:20.899Z,-3.70
2022-12-12T06:56:51.876Z,-3.70
2022-12-12T06:59:22.612Z,-3.80
2022-12-12T07:01:54.753Z,-3.90
2022-12-12T07:04:26.459Z,-3.90
2022-12-12T07:06:57.086Z,-4.00
2022-12-12T07:09:28.475Z,-3.90
2022-12-12T07:11:59.252Z,-3.90
2022-12-12T07:14:29.968Z,-4.00
2022-12-12T07:17:00.897Z,-3.90
2022-12-12T07:19:31.581Z,-3.70
2022-12-12T07:22:09.024Z,-3.70
2022-12-12T07:24:36.373Z,-3.70
2022-12-12T07:27:08.029Z,-3.60
2022-12-12T07:29:38.833Z,-3.70
2022-12-12T07:32:09.429Z,-3.60
2022-12-12T07:34:40.207Z,-3.70
2022-12-12T07:37:10.855Z,-3.70
2022-12-12T07:39:41.896Z,-3.70
2022-12-12T07:42:12.465Z,-3.60
2022-12-12T07:44:43.400Z,-3.70
2022-12-12T07:47:13.983Z,-3.60
2022-12-12T07:49:44.663Z,-3.50
2022-12-12T07:52:15.239Z,-3.40
2022-12-12T07:54:45.998Z,-3.40
2022-12-12T07:57:17.086Z,-3.50
2022-12-12T07:59:47.777Z,-3.60
2022-12-12T08:02:18.445Z,-3.50
2022-12-12T08:04:49.246Z,-3.50
2022-12-12T08:07:19.931Z,-3.30
2022-12-12T08:09:50.606Z,-3.40
2022-12-12T08:12:21.590Z,-3.30
2022-12-12T08:14:52.459Z,-3.20
2022-12-12T08:17:23.276Z,-3.10
2022-12-12T08:19:53.913Z,-2.90
2022-12-12T08:22:24.480Z,-2.90
2022-12-12T08:24:55.324Z,-2.80
2022-12-12T08:27:25.912Z,-2.80
2022-12-12T08:29:57.505Z,-2.70
2022-12-12T08:32:28.311Z,-2.60
2022-12-12T08:34:59.758Z,-2.40
2022-12-12T08:37:30.352Z,-2.30
2022-12-12T08:40:01.194Z,-2.30
2022-12-12T08:42:31.919Z,-2.30
2022-12-12T08:45:02.591Z,-2.30
2022-12-12T08:47:33.418Z,-2.40
2022-12-12T08:50:04.049Z,-2.30
2022-12-12T08:52:34.650Z,-2.30
2022-12-12T08:55:05.816Z,-2.20
2022-12-12T08:57:36.531Z,-2.20
2022-12-12T09:00:09.866Z,-2.20
2022-12-12T09:02:40.611Z,-2.10
2022-12-12T09:05:12.269Z,-2.00
2022-12-12T09:07:43.249Z,-1.90
2022-12-12T09:10:14.003Z,-1.80
2022-12-12T09:12:44.790Z,-1.90
2022-12-12T09:15:16.129Z,-1.80
2022-12-12T09:17:47.549Z,-1.80
2022-12-12T09:20:18.315Z,-1.70
2022-12-12T09:22:50.135Z,-1.60
2022-12-12T09:25:21.950Z,-1.60
2022-12-12T09:27:52.711Z,-1.60
2022-12-12T09:30:23.546Z,-1.60
2022-12-12T09:32:54.600Z,-1.70
2022-12-12T09:35:25.308Z,-1.50
2022-12-12T09:37:56.838Z,-1.50
2022-12-12T09:40:30.493Z,-1.50
2022-12-12T09:43:01.826Z,-1.50
2022-12-12T09:45:34.658Z,-1.50
2022-12-12T09:48:07.429Z,-1.40
2022-12-12T09:50:41.674Z,-1.60
2022-12-12T09:53:16.062Z,-1.40
2022-12-12T09:55:50.415Z,-1.40
2022-12-12T09:58:24.556Z,-1.20
2022-12-12T10:00:59.113Z,-1.20
2022-12-12T10:03:33.801Z,-1.20
2022-12-12T10:08:44.831Z,-1.10
2022-12-12T10:11:37.239Z,-1.00
2022-12-12T10:14:11.474Z,-0.80
2022-12-12T10:16:43.692Z,-0.70
2022-12-12T10:19:18.005Z,-0.70
2022-12-12T10:21:50.912Z,-0.50
2022-12-12T10:24:28.539Z,-0.30
2022-12-12T10:27:02.240Z,-0.40
2022-12-12T10:29:39.660Z,-0.40
2022-12-12T10:32:09.812Z,-0.50
2022-12-12T10:34:48.385Z,-0.50
2022-12-12T10:37:30.350Z,-0.60
2022-12-12T10:40:06.751Z,-0.70
2022-12-12T10:42:40.939Z,-0.70
2022-12-12T10:48:20.816Z,-0.60
2022-12-12T10:50:54.257Z,-0.40
2022-12-12T10:53:25.695Z,-0.20
2022-12-12T10:55:59.622Z,0.10
2022-12-12T10:58:32.519Z,0.00
2022-12-12T11:01:05.734Z,0.00
2022-12-12T11:03:39.786Z,0.10
2022-12-12T11:06:14.093Z,0.10
2022-12-12T11:08:54.822Z,0.20
2022-12-12T11:11:26.804Z,0.30
2022-12-12T11:14:00.551Z,0.60
2022-12-12T11:16:33.881Z,1.00
2022-12-12T11:19:08.314Z,1.10
2022-12-12T11:21:39.723Z,1.70
2022-12-12T11:27:03.100Z,2.40
2022-12-12T11:29:38.568Z,2.40
2022-12-12T11:32:14.801Z,2.50
2022-12-12T11:34:49.521Z,2.60
2022-12-12T11:37:22.396Z,2.90
2022-12-12T11:39:55.294Z,3.10
2022-12-12T11:42:28.797Z,3.30
2022-12-12T11:45:05.882Z,3.40
2022-12-12T11:47:42.297Z,3.30
2022-12-12T11:50:22.463Z,3.20
2022-12-12T11:52:57.205Z,3.40
2022-12-12T11:55:33.459Z,3.80
2022-12-12T11:58:16.114Z,4.00
2022-12-12T12:00:52.318Z,4.00
2022-12-12T12:03:41.846Z,3.90
2022-12-12T12:06:34.930Z,3.80
2022-12-12T12:09:22.507Z,3.80
2022-12-12T12:11:58.723Z,4.00
2022-12-12T12:14:44.936Z,4.20
2022-12-12T12:17:19.388Z,4.60
2022-12-12T12:19:52.970Z,4.30
2022-12-12T12:22:28.816Z,4.20
2022-12-12T12:25:18.409Z,4.40
2022-12-12T12:30:35.602Z,5.00
2022-12-12T12:36:23.517Z,4.40
2022-12-12T12:39:00.117Z,4.20
2022-12-12T12:41:39.081Z,4.10
2022-12-12T12:44:39.631Z,3.80
2022-12-12T12:47:16.029Z,4.20
2022-12-12T12:49:50.108Z,3.90
2022-12-12T12:55:03.111Z,4.20
2022-12-12T12:57:36.670Z,4.00
2022-12-12T13:00:12.198Z,4.30
2022-12-12T13:02:50.107Z,3.80
2022-12-12T13:05:24.582Z,3.80
2022-12-12T13:08:00.552Z,3.60
2022-12-12T13:10:33.751Z,3.60
2022-12-12T13:13:09.325Z,3.10
2022-12-12T13:15:44.322Z,3.00
2022-12-12T13:18:45.237Z,3.20
2022-12-12T13:21:11.298Z,3.10
2022-12-12T13:23:51.120Z,3.10
2022-12-12T13:26:25.201Z,2.90
2022-12-12T13:29:00.302Z,2.80
2022-12-12T13:31:54.326Z,2.50
2022-12-12T13:37:07.779Z,2.40
2022-12-12T13:39:40.094Z,2.30
2022-12-12T13:42:12.350Z,2.20
2022-12-12T13:44:45.313Z,2.30
2022-12-12T13:47:36.171Z,2.30
2022-12-12T13:50:16.494Z,2.20
2022-12-12T13:52:48.986Z,2.00
2022-12-12T13:55:38.666Z,2.10
2022-12-12T13:58:35.293Z,2.10
2022-12-12T14:01:48.157Z,2.10
2022-12-12T14:04:29.670Z,2.00
2022-12-12T14:07:06.315Z,2.00
2022-12-12T14:09:48.221Z,1.90
2022-12-12T14:12:17.911Z,1.80
2022-12-12T14:14:54.472Z,1.80
2022-12-12T14:17:27.928Z,1.60
2022-12-12T14:20:00.876Z,1.60
2022-12-12T14:22:34.074Z,1.60
2022-12-12T14:25:13.291Z,1.60
2022-12-12T14:28:22.351Z,1.60
2022-12-12T14:31:14.396Z,1.60
2022-12-12T14:34:11.284Z,1.60
2022-12-12T14:37:10.690Z,1.60
2022-12-12T14:40:14.852Z,1.50
2022-12-12T14:43:20.177Z,1.50
2022-12-12T14:45:38.413Z,1.40
2022-12-12T14:48:22.419Z,1.30
2022-12-12T14:50:56.509Z,1.30
2022-12-12T14:53:29.711Z,1.20
2022-12-12T14:56:03.448Z,1.20
2022-12-12T15:01:16.418Z,1.20
2022-12-12T15:03:49.981Z,1.10
2022-12-12T15:06:29.548Z,1.10
2022-12-12T15:09:09.985Z,1.10
2022-12-12T15:11:41.087Z,1.00
2022-12-12T15:14:22.179Z,0.90
2022-12-12T15:16:56.851Z,0.80
2022-12-12T15:19:31.363Z,0.80
2022-12-12T15:22:02.087Z,0.80
2022-12-12T15:24:39.190Z,0.80
2022-12-12T15:27:11.603Z,0.80
2022-12-12T15:29:43.887Z,0.70
2022-12-12T15:32:19.685Z,0.70
2022-12-12T15:34:52.742Z,0.70
2022-12-12T15:37:29.268Z,0.60
2022-12-12T15:40:03.346Z,0.70
2022-12-12T15:42:34.557Z,0.70
2022-12-12T15:45:06.928Z,0.70
2022-12-12T15:47:37.648Z,0.70
2022-12-12T15:50:16.326Z,0.60
2022-12-12T15:52:48.230Z,0.60
2022-12-12T15:55:25.049Z,0.50
2022-12-12T15:57:56.152Z,0.50
2022-12-12T16:00:37.610Z,0.50
2022-12-12T16:03:24.077Z,0.50
2022-12-12T16:06:08.044Z,0.50
2022-12-12T16:08:48.838Z,0.40
2022-12-12T16:11:45.668Z,0.40
2022-12-12T16:14:39.585Z,0.40
2022-12-12T16:17:08.130Z,0.40
2022-12-12T16:19:45.830Z,0.40
2022-12-12T16:22:25.036Z,0.40
2022-12-12T16:24:57.871Z,0.40
2022-12-12T16:27:28.668Z,0.40
2022-12-12T16:29:59.284Z,0.30
2022-12-12T16:32:30.063Z,0.40
2022-12-12T16:35:00.808Z,0.40
2022-12-12T16:37:31.577Z,0.40
2022-12-12T16:40:02.352Z,0.40
2022-12-12T16:42:33.187Z,0.30
2022-12-12T16:45:04.115Z,0.30
2022-12-12T16:47:34.747Z,0.30
2022-12-12T16:50:08.810Z,0.30
2022-12-12T16:52:39.649Z,0.30
2022-12-12T16:55:16.771Z,0.30
2022-12-12T16:57:47.619Z,0.30
2022-12-12T17:00:19.909Z,0.30
2022-12-12T17:02:50.884Z,0.30
2022-12-12T17:05:24.738Z,0.30
2022-12-12T17:07:56.299Z,0.20
2022-12-12T17:10:29.451Z,0.20
2022-12-12T17:13:00.509Z,0.20
2022-12-12T17:15:32.965Z,0.20
2022-12-12T17:18:05.060Z,0.30
2022-12-12T17:20:37.437Z,0.30
2022-12-12T17:23:27.566Z,0.30
2022-12-12T17:26:04.103Z,0.30
2022-12-12T17:28:31.098Z,0.30
2022-12-12T17:31:02.236Z,0.30
2022-12-12T17:33:32.975Z,0.30
2022-12-12T17:36:06.518Z,0.40
2022-12-12T17:38:37.424Z,0.30
2022-12-12T17:41:09.516Z,0.40
2022-12-12T17:43:42.432Z,0.40
2022-12-12T17:46:15.744Z,0.40
2022-12-12T17:48:48.388Z,0.50
2022-12-12T17:51:21.297Z,0.60
2022-12-12T17:53:53.566Z,0.50
2022-12-12T17:56:26.670Z,0.50
2022-12-12T17:58:57.359Z,0.40
2022-12-12T18:01:31.850Z,0.40
2022-12-12T18:04:05.029Z,0.40
2022-12-12T18:06:36.901Z,0.40
2022-12-12T18:09:07.922Z,0.30
2022-12-12T18:11:39.152Z,0.30
2022-12-12T18:14:15.537Z,0.30
2022-12-12T18:16:48.785Z,0.30
2022-12-12T18:19:19.709Z,0.30
2022-12-12T18:22:00.701Z,0.30
2022-12-12T18:24:25.018Z,0.30
2022-12-12T18:26:57.141Z,0.30
2022-12-12T18:29:29.714Z,0.30
2022-12-12T18:32:00.468Z,0.30
2022-12-12T18:34:31.229Z,0.30
2022-12-12T18:37:02.003Z,0.30
2022-12-12T18:39:32.830Z,0.30
2022-12-12T18:42:03.469Z,0.30
2022-12-12T18:44:34.520Z,0.30
2022-12-12T18:47:05.166Z,0.30
2022-12-12T18:49:36.302Z,0.30
2022-12-12T18:52:07.567Z,0.30
2022-12-12T18:54:38.821Z,0.30
2022-12-12T18:57:09.530Z,0.30
2022-12-12T18:59:41.625Z,0.30
2022-12-12T19:02:15.256Z,0.30
2022-12-12T19:04:47.330Z,0.30
2022-12-12T19:07:18.808Z,0.30
2022-12-12T19:09:49.634Z,0.30
2022-12-12T19:12:20.279Z,0.30
2022-12-12T19:17:26.207Z,0.40
2022-12-12T19:19:56.281Z,0.40
2022-12-12T19:24:59.587Z,0.40
2022-12-12T19:27:31.844Z,0.40
2022-12-12T19:30:02.445Z,0.30
2022-12-12T19:32:33.127Z,0.30
2022-12-12T19:35:05.336Z,0.30
2022-12-12T19:37:37.487Z,0.30
2022-12-12T19:40:11.689Z,0.30
2022-12-12T19:42:42.942Z,0.20
2022-12-12T19:45:13.919Z,0.30
2022-12-12T19:47:44.632Z,0.30
2022-12-12T19:50:15.799Z,0.30
2022-12-12T19:52:47.575Z,0.20
2022-12-12T19:55:18.610Z,0.10
2022-12-12T19:57:49.250Z,0.20
2022-12-12T20:00:21.232Z,0.10
2022-12-12T20:02:51.905Z,0.10
2022-12-12T20:05:22.951Z,0.00
2022-12-12T20:07:53.701Z,0.00
2022-12-12T20:10:24.447Z,-0.10
2022-12-12T20:12:58.727Z,-0.10
2022-12-12T20:15:28.012Z,-0.10
2022-12-12T20:18:00.665Z,-0.10
2022-12-12T20:20:31.481Z,-0.10
2022-12-12T20:23:02.355Z,0.20
2022-12-12T20:25:33.718Z,0.00
2022-12-12T20:28:04.438Z,0.00
2022-12-12T20:30:35.635Z,0.10
2022-12-12T20:33:06.487Z,0.10
2022-12-12T20:35:38.016Z,0.10
2022-12-12T20:38:09.372Z,0.30
2022-12-12T20:40:41.404Z,0.10
2022-12-12T20:43:12.309Z,0.00
2022-12-12T20:45:43.050Z,0.00
2022-12-12T20:48:13.661Z,0.10
2022-12-12T20:50:44.407Z,0.00
2022-12-12T20:53:15.738Z,0.00
2022-12-12T20:55:46.414Z,0.00
2022-12-12T20:58:17.126Z,0.00
2022-12-12T21:00:48.326Z,0.00
2022-12-12T21:03:19.061Z,0.00
2022-12-12T21:05:49.836Z,0.00
2022-12-12T21:08:21.761Z,0.00
2022-12-12T21:10:52.536Z,0.00
2022-12-12T21:13:23.504Z,0.00
2022-12-12T21:15:54.254Z,0.00
2022-12-12T21:18:25.431Z,0.00
2022-12-12T21:20:56.310Z,-0.10
2022-12-12T21:23:27.088Z,0.00
2022-12-12T21:25:58.263Z,-0.10
2022-12-12T21:28:28.923Z,-0.10
2022-12-12T21:31:00.921Z,-0.10
2022-12-12T21:33:31.643Z,-0.10
2022-12-12T21:36:06.803Z,0.00
2022-12-12T21:38:37.596Z,0.00
2022-12-12T21:41:09.717Z,0.00
2022-12-12T21:43:41.171Z,0.00
2022-12-12T21:46:15.029Z,0.00
2022-12-12T21:48:46.017Z,0.00
2022-12-12T21:51:18.276Z,0.00
2022-12-12T21:53:49.107Z,0.00
2022-12-12T21:56:20.324Z,0.00
2022-12-12T21:58:50.991Z,0.00
2022-12-12T22:01:22.625Z,0.00
2022-12-12T22:03:53.339Z,0.00
2022-12-12T22:06:25.374Z,0.00
2022-12-12T22:08:58.883Z,0.00
2022-12-12T22:11:41.805Z,0.00
2022-12-12T22:14:04.352Z,-0.10
2022-12-12T22:16:35.855Z,0.00
2022-12-12T22:19:09.213Z,0.00
2022-12-12T22:21:40.305Z,0.10
2022-12-12T22:24:11.633Z,0.00
2022-12-12T22:26:44.013Z,0.10
2022-12-12T22:29:16.736Z,0.10
2022-12-12T22:31:49.319Z,0.00
2022-12-12T22:34:22.309Z,0.00
2022-12-12T22:36:54.193Z,0.10
2022-12-12T22:39:26.394Z,0.10
2022-12-12T22:41:57.900Z,0.10
2022-12-12T22:44:29.266Z,0.10
2022-12-12T22:46:59.966Z,0.00
2022-12-12T22:49:30.916Z,0.10
2022-12-12T22:52:01.619Z,0.10
2022-12-12T22:54:32.259Z,0.00
2022-12-12T22:57:02.920Z,0.00
2022-12-12T22:59:33.573Z,0.00
2022-12-12T23:02:04.262Z,0.00
2022-12-12T23:04:35.233Z,0.00
2022-12-12T23:07:07.256Z,0.00
2022-12-12T23:09:38.332Z,0.00
2022-12-12T23:12:09.513Z,0.00
2022-12-12T23:14:40.397Z,0.00
2022-12-12T23:17:11.074Z,0.00
2022-12-12T23:19:42.105Z,0.00
2022-12-12T23:22:12.789Z,-0.10
2022-12-12T23:24:43.598Z,-0.10
2022-12-12T23:27:14.280Z,-0.10
2022-12-12T23:29:45.306Z,0.00
2022-12-12T23:32:16.169Z,0.00
2022-12-12T23:34:46.976Z,0.00
2022-12-12T23:37:17.669Z,0.00
2022-12-12T23:39:50.030Z,0.00
2022-12-12T23:42:20.700Z,0.00
2022-12-12T23:44:52.382Z,0.00
2022-12-12T23:47:23.022Z,0.00
2022-12-12T23:49:53.710Z,0.00
2022-12-12T23:52:24.329Z,0.00
2022-12-12T23:54:55.085Z,0.00
2022-12-12T23:57:25.807Z,0.00
2022-12-12T23:59:56.477Z,-0.10
